createdAt,value
2023-04-23T00:02:03.118Z,36.00
2023-04-23T00:04:42.445Z,32.65
2023-04-23T00:07:16.542Z,31.60
2023-04-23T00:09:54.161Z,31.47
2023-04-23T00:12:28.031Z,33.17
2023-04-23T00:15:06.156Z,33.10
2023-04-23T00:17:40.354Z,32.80
2023-04-23T00:20:13.988Z,29.73
2023-04-23T00:22:46.360Z,31.42
2023-04-23T00:25:19.170Z,31.90
2023-04-23T00:27:51.495Z,31.63
2023-04-23T00:30:24.250Z,34.67
2023-04-23T00:32:59.320Z,36.03
2023-04-23T00:35:32.005Z,37.70
2023-04-23T00:38:05.413Z,39.27
2023-04-23T00:40:38.386Z,32.43
2023-04-23T00:43:11.787Z,39.50
2023-04-23T00:45:45.609Z,32.80
2023-04-23T00:48:18.416Z,36.35
2023-04-23T00:50:51.700Z,33.43
2023-04-23T00:53:23.901Z,34.53
2023-04-23T00:55:56.453Z,34.03
2023-04-23T00:58:29.047Z,34.10
2023-04-23T01:01:04.999Z,31.50
2023-04-23T01:03:41.175Z,30.63
2023-04-23T01:06:14.519Z,35.83
2023-04-23T01:08:48.463Z,33.43
2023-04-23T01:11:23.003Z,31.83
2023-04-23T01:13:55.825Z,32.15
2023-04-23T01:16:29.743Z,36.03
2023-04-23T01:19:02.470Z,35.70
2023-04-23T01:24:11.303Z,31.73
2023-04-23T01:26:45.231Z,34.20
2023-04-23T01:29:18.407Z,31.33
2023-04-23T01:31:52.412Z,33.57
2023-04-23T01:34:25.280Z,28.63
2023-04-23T01:36:59.032Z,31.70
2023-04-23T01:39:32.048Z,33.38
2023-04-23T01:42:08.562Z,27.35
2023-04-23T01:44:41.206Z,32.45
2023-04-23T01:47:14.938Z,28.77
2023-04-23T01:49:47.241Z,27.53
2023-04-23T01:52:20.251Z,34.30
2023-04-23T01:54:52.785Z,30.25
2023-04-23T01:57:27.200Z,31.13
2023-04-23T02:00:08.393Z,31.43
2023-04-23T02:02:47.731Z,33.23
2023-04-23T02:05:22.966Z,27.60
2023-04-23T02:07:55.418Z,31.00
2023-04-23T02:10:27.731Z,28.10
2023-04-23T02:13:00.797Z,26.70
2023-04-23T02:15:38.184Z,29.10
2023-04-23T02:18:11.348Z,31.40
2023-04-23T02:20:45.338Z,30.57
2023-04-23T02:23:18.102Z,27.02
2023-04-23T02:25:51.434Z,28.30
2023-04-23T02:28:24.040Z,24.57
2023-04-23T02:30:56.464Z,32.10
2023-04-23T02:33:28.987Z,29.40
2023-04-23T02:36:02.190Z,26.80
2023-04-23T02:38:34.919Z,27.97
2023-04-23T02:41:07.973Z,30.57
2023-04-23T02:43:42.279Z,25.77
2023-04-23T02:46:15.257Z,26.05
2023-04-23T02:48:47.555Z,27.85
2023-04-23T02:51:20.035Z,32.90
2023-04-23T02:53:52.917Z,29.00
2023-04-23T02:56:26.816Z,27.57
2023-04-23T02:58:59.728Z,25.00
2023-04-23T03:01:32.373Z,23.25
2023-04-23T03:04:05.838Z,30.80
2023-04-23T03:06:38.593Z,30.48
2023-04-23T03:09:12.302Z,24.60
2023-04-23T03:11:44.893Z,23.70
2023-04-23T03:14:19.350Z,24.27
2023-04-23T03:16:52.234Z,24.60
2023-04-23T03:19:27.677Z,25.40
2023-04-23T03:22:01.087Z,24.00
2023-04-23T03:24:34.198Z,29.37
2023-04-23T03:27:08.457Z,25.00
2023-04-23T03:29:44.529Z,25.47
2023-04-23T03:32:17.067Z,26.00
2023-04-23T03:34:49.445Z,24.97
2023-04-23T03:37:22.973Z,23.50
2023-04-23T03:39:55.910Z,28.23
2023-04-23T03:42:28.662Z,26.57
2023-04-23T03:45:02.211Z,22.80
2023-04-23T03:47:37.972Z,24.40
2023-04-23T03:50:14.683Z,27.73
2023-04-23T03:52:48.087Z,27.77
2023-04-23T03:55:26.889Z,24.87
2023-04-23T03:58:01.866Z,21.17
2023-04-23T04:00:47.485Z,21.53
2023-04-23T04:03:20.292Z,25.27
2023-04-23T04:05:53.608Z,26.27
2023-04-23T04:08:26.845Z,23.27
2023-04-23T04:11:00.390Z,28.00
2023-04-23T04:13:32.993Z,23.00
2023-04-23T04:16:06.034Z,26.00
2023-04-23T04:18:39.519Z,20.23
2023-04-23T04:21:12.704Z,24.92
2023-04-23T04:23:45.657Z,25.87
2023-04-23T04:26:20.931Z,21.27
2023-04-23T04:28:53.621Z,24.80
2023-04-23T04:31:28.836Z,23.23
2023-04-23T04:34:01.956Z,23.40
2023-04-23T04:36:38.255Z,21.33
2023-04-23T04:39:13.750Z,20.00
2023-04-23T04:41:50.491Z,21.50
2023-04-23T04:44:26.690Z,18.33
2023-04-23T04:46:59.409Z,19.43
2023-04-23T04:49:32.376Z,24.40
2023-04-23T04:52:10.828Z,25.47
2023-04-23T04:54:43.380Z,24.53
2023-04-23T04:57:17.163Z,21.87
2023-04-23T04:59:50.448Z,19.57
2023-04-23T05:02:23.897Z,14.83
2023-04-23T05:04:56.491Z,16.85
2023-04-23T05:07:31.962Z,18.17
2023-04-23T05:10:04.240Z,20.33
2023-04-23T05:12:42.004Z,16.90
2023-04-23T05:15:15.621Z,16.10
2023-04-23T05:20:19.164Z,18.73
2023-04-23T05:23:00.026Z,15.53
2023-04-23T05:25:34.680Z,13.23
2023-04-23T05:28:10.024Z,14.70
2023-04-23T05:30:44.020Z,13.13
2023-04-23T05:33:21.275Z,15.80
2023-04-23T05:35:55.700Z,16.77
2023-04-23T05:38:28.130Z,12.90
2023-04-23T05:41:00.570Z,15.60
2023-04-23T05:43:33.757Z,11.73
2023-04-23T05:46:07.793Z,14.35
2023-04-23T05:48:43.389Z,17.03
2023-04-23T05:51:16.023Z,15.20
2023-04-23T05:53:48.654Z,12.63
2023-04-23T05:56:21.277Z,13.83
2023-04-23T05:58:54.746Z,13.60
2023-04-23T06:01:27.257Z,14.33
2023-04-23T06:04:00.590Z,17.85
2023-04-23T06:06:36.010Z,17.60
2023-04-23T06:09:09.482Z,14.87
2023-04-23T06:11:42.146Z,14.17
2023-04-23T06:14:15.285Z,13.37
2023-04-23T06:16:53.621Z,13.17
2023-04-23T06:19:27.563Z,15.00
2023-04-23T06:22:00.385Z,13.47
2023-04-23T06:24:33.120Z,11.97
2023-04-23T06:27:05.810Z,15.40
2023-04-23T06:29:41.902Z,13.50
2023-04-23T06:32:17.278Z,13.33
2023-04-23T06:35:00.960Z,13.13
2023-04-23T06:37:39.477Z,13.43
2023-04-23T06:40:14.316Z,18.47
2023-04-23T06:42:48.191Z,11.97
2023-04-23T06:45:21.225Z,16.80
2023-04-23T06:47:53.877Z,11.10
2023-04-23T06:50:26.637Z,12.20
2023-04-23T06:53:00.903Z,14.80
2023-04-23T06:55:38.567Z,10.25
2023-04-23T06:58:12.750Z,18.07
2023-04-23T07:00:48.287Z,10.87
2023-04-23T07:03:22.041Z,10.80
2023-04-23T07:05:54.830Z,12.53
2023-04-23T07:08:27.508Z,10.33
2023-04-23T07:11:00.286Z,14.03
2023-04-23T07:13:33.817Z,9.57
2023-04-23T07:16:06.770Z,10.97
2023-04-23T07:18:40.684Z,11.77
2023-04-23T07:21:13.302Z,14.03
2023-04-23T07:23:46.185Z,9.90
2023-04-23T07:26:18.853Z,9.38
2023-04-23T07:28:53.000Z,11.63
2023-04-23T07:31:26.862Z,9.23
2023-04-23T07:33:59.313Z,11.22
2023-04-23T07:36:34.175Z,9.77
2023-04-23T07:39:07.777Z,7.67
2023-04-23T07:41:44.462Z,13.93
2023-04-23T07:44:16.980Z,9.60
2023-04-23T07:46:49.922Z,8.57
2023-04-23T07:49:25.869Z,8.10
2023-04-23T07:51:58.538Z,9.73
2023-04-23T07:54:30.947Z,10.00
2023-04-23T07:57:04.443Z,8.83
2023-04-23T07:59:36.724Z,12.15
2023-04-23T08:02:12.565Z,8.70
2023-04-23T08:04:45.201Z,6.62
2023-04-23T08:07:18.103Z,8.87
2023-04-23T08:09:50.586Z,8.13
2023-04-23T08:12:27.297Z,7.40
2023-04-23T08:14:59.734Z,6.60
2023-04-23T08:17:36.573Z,8.00
2023-04-23T08:20:11.673Z,7.63
2023-04-23T08:22:46.956Z,8.47
2023-04-23T08:25:19.693Z,7.00
2023-04-23T08:27:52.814Z,9.03
2023-04-23T08:30:25.229Z,8.20
2023-04-23T08:32:58.503Z,10.30
2023-04-23T08:35:32.380Z,5.78
2023-04-23T08:38:07.233Z,8.37
2023-04-23T08:40:43.747Z,9.13
2023-04-23T08:43:21.176Z,9.33
2023-04-23T08:45:54.582Z,8.97
2023-04-23T08:48:28.551Z,7.33
2023-04-23T08:51:06.656Z,9.17
2023-04-23T08:53:45.297Z,8.30
2023-04-23T08:56:18.101Z,6.67
2023-04-23T08:58:51.512Z,8.50
2023-04-23T09:01:26.459Z,5.07
2023-04-23T09:04:00.229Z,5.20
2023-04-23T09:06:34.141Z,6.50
2023-04-23T09:09:08.129Z,7.40
2023-04-23T09:11:42.409Z,6.50
2023-04-23T09:14:15.951Z,4.97
2023-04-23T09:16:49.275Z,5.97
2023-04-23T09:19:22.045Z,7.67
2023-04-23T09:21:59.436Z,8.47
2023-04-23T09:24:31.779Z,7.07
2023-04-23T09:27:04.509Z,5.30
2023-04-23T09:29:36.890Z,4.13
2023-04-23T09:32:11.598Z,7.00
2023-04-23T09:34:47.314Z,6.37
2023-04-23T09:37:21.424Z,7.00
2023-04-23T09:39:57.082Z,6.43
2023-04-23T09:42:31.514Z,6.70
2023-04-23T09:45:07.526Z,5.23
2023-04-23T09:47:49.706Z,6.47
2023-04-23T09:50:32.678Z,7.83
2023-04-23T09:53:06.375Z,7.83
2023-04-23T09:55:46.955Z,5.87
2023-04-23T09:58:29.077Z,5.93
2023-04-23T10:01:09.787Z,5.17
2023-04-23T10:03:46.833Z,4.87
2023-04-23T10:06:39.480Z,8.57
2023-04-23T10:09:12.224Z,5.03
2023-04-23T10:11:46.011Z,5.58
2023-04-23T10:14:18.333Z,6.50
2023-04-23T10:16:53.729Z,5.83
2023-04-23T10:19:27.681Z,6.83
2023-04-23T10:22:18.438Z,6.50
2023-04-23T10:24:58.797Z,4.60
2023-04-23T10:27:44.536Z,4.47
2023-04-23T10:30:24.717Z,4.67
2023-04-23T10:32:58.488Z,4.62
2023-04-23T10:35:32.533Z,5.67
2023-04-23T10:38:10.358Z,6.23
2023-04-23T10:40:46.771Z,4.20
2023-04-23T10:43:22.205Z,7.15
2023-04-23T10:45:54.816Z,7.00
2023-04-23T10:48:29.097Z,5.17
2023-04-23T10:51:30.579Z,6.07
2023-04-23T10:53:58.500Z,5.57
2023-04-23T10:56:35.170Z,6.80
2023-04-23T10:59:09.792Z,4.30
2023-04-23T11:01:45.033Z,7.07
2023-04-23T11:04:29.224Z,5.67
2023-04-23T11:07:10.957Z,4.83
2023-04-23T11:09:47.931Z,5.73
2023-04-23T11:15:34.865Z,7.23
2023-04-23T11:18:07.808Z,7.43
2023-04-23T11:20:43.785Z,5.33
2023-04-23T11:23:33.759Z,6.37
2023-04-23T11:26:09.145Z,4.90
2023-04-23T11:28:44.708Z,4.50
2023-04-23T11:31:17.960Z,4.47
2023-04-23T11:36:21.335Z,7.03
2023-04-23T11:39:03.220Z,6.43
2023-04-23T11:41:37.935Z,4.97
2023-04-23T11:44:11.999Z,4.77
2023-04-23T11:46:52.490Z,6.23
2023-04-23T11:49:26.261Z,5.33
2023-04-23T11:52:06.432Z,4.80
2023-04-23T11:54:45.528Z,5.40
2023-04-23T11:57:18.013Z,5.20
2023-04-23T11:59:50.944Z,6.42
2023-04-23T12:02:30.031Z,7.10
2023-04-23T12:05:10.252Z,12.10
2023-04-23T12:07:45.179Z,9.33
2023-04-23T12:10:23.319Z,5.17
2023-04-23T12:12:55.993Z,5.20
2023-04-23T12:15:29.798Z,6.45
2023-04-23T12:18:13.302Z,5.83
2023-04-23T12:23:19.458Z,4.67
2023-04-23T12:25:55.088Z,6.03
2023-04-23T12:28:28.788Z,7.10
2023-04-23T12:31:08.547Z,4.83
2023-04-23T12:33:42.305Z,8.37
2023-04-23T12:36:17.805Z,5.33
2023-04-23T12:38:54.322Z,5.53
2023-04-23T12:41:26.644Z,4.63
2023-04-23T12:44:01.748Z,6.60
2023-04-23T12:46:45.934Z,5.37
2023-04-23T12:49:18.676Z,5.07
2023-04-23T12:51:52.852Z,7.50
2023-04-23T12:54:27.101Z,6.33
2023-04-23T12:57:02.606Z,5.00
2023-04-23T12:59:39.969Z,4.85
2023-04-23T13:02:13.890Z,5.97
2023-04-23T13:04:47.731Z,5.12
2023-04-23T13:07:20.165Z,5.10
2023-04-23T13:09:52.773Z,5.97
2023-04-23T13:12:28.616Z,4.53
2023-04-23T13:15:01.915Z,5.47
2023-04-23T13:17:38.392Z,6.47
2023-04-23T13:20:12.548Z,5.30
2023-04-23T13:22:45.902Z,5.13
2023-04-23T13:25:18.307Z,7.50
2023-04-23T13:27:50.986Z,6.17
2023-04-23T13:30:23.673Z,4.00
2023-04-23T13:32:57.862Z,4.37
2023-04-23T13:35:31.251Z,6.47
2023-04-23T13:38:12.067Z,7.70
2023-04-23T13:40:45.734Z,8.47
2023-04-23T13:43:18.437Z,4.87
2023-04-23T13:45:51.214Z,6.67
2023-04-23T13:48:28.889Z,5.47
2023-04-23T13:51:07.091Z,4.90
2023-04-23T13:53:46.785Z,5.23
2023-04-23T13:56:19.350Z,5.27
2023-04-23T13:58:53.586Z,10.57
2023-04-23T14:01:27.330Z,6.50
2023-04-23T14:03:59.972Z,6.72
2023-04-23T14:06:43.416Z,5.20
2023-04-23T14:09:15.937Z,6.30
2023-04-23T14:11:48.534Z,6.47
2023-04-23T14:14:21.182Z,5.58
2023-04-23T14:16:54.682Z,7.87
2023-04-23T14:19:30.693Z,5.53
2023-04-23T14:22:03.170Z,7.23
2023-04-23T14:24:50.911Z,7.20
2023-04-23T14:27:23.611Z,5.40
2023-04-23T14:30:06.359Z,8.30
2023-04-23T14:32:48.463Z,4.43
2023-04-23T14:38:15.345Z,5.83
2023-04-23T14:40:50.877Z,6.10
2023-04-23T14:43:23.421Z,5.77
2023-04-23T14:45:56.174Z,5.60
2023-04-23T14:48:30.168Z,7.93
2023-04-23T14:51:02.613Z,5.83
2023-04-23T14:53:36.383Z,4.80
2023-04-23T14:56:09.336Z,6.13
2023-04-23T14:58:43.855Z,9.03
2023-04-23T15:01:16.793Z,6.17
2023-04-23T15:03:54.012Z,4.70
2023-04-23T15:06:29.087Z,6.33
2023-04-23T15:09:02.896Z,5.93
2023-04-23T15:11:35.673Z,6.33
2023-04-23T15:14:20.420Z,6.50
2023-04-23T15:16:53.126Z,7.70
2023-04-23T15:19:33.676Z,5.67
2023-04-23T15:22:06.093Z,4.60
2023-04-23T15:24:38.877Z,8.80
2023-04-23T15:27:15.126Z,5.43
2023-04-23T15:29:47.748Z,8.23
2023-04-23T15:32:20.385Z,6.40
2023-04-23T15:34:52.974Z,7.13
2023-04-23T15:37:27.965Z,5.57
2023-04-23T15:40:01.368Z,9.83
2023-04-23T15:42:36.393Z,7.15
2023-04-23T15:45:11.357Z,5.83
2023-04-23T15:47:45.432Z,6.47
2023-04-23T15:50:23.215Z,5.23
2023-04-23T15:52:58.535Z,7.50
2023-04-23T15:55:34.708Z,6.07
2023-04-23T15:58:10.402Z,6.73
2023-04-23T16:00:45.680Z,6.77
2023-04-23T16:03:20.952Z,5.03
2023-04-23T16:05:54.442Z,5.33
2023-04-23T16:08:27.147Z,7.85
2023-04-23T16:10:59.770Z,5.50
2023-04-23T16:13:32.468Z,6.37
2023-04-23T16:16:05.533Z,9.53
2023-04-23T16:18:38.125Z,5.67
2023-04-23T16:21:18.547Z,8.13
2023-04-23T16:23:58.202Z,7.53
2023-04-23T16:26:35.326Z,4.90
2023-04-23T16:29:21.479Z,6.30
2023-04-23T16:31:55.480Z,6.10
2023-04-23T16:34:28.089Z,6.47
2023-04-23T16:37:00.950Z,7.57
2023-04-23T16:39:38.405Z,7.17
2023-04-23T16:42:10.790Z,6.97
2023-04-23T16:44:46.456Z,6.47
2023-04-23T16:47:19.488Z,7.53
2023-04-23T16:49:53.178Z,7.10
2023-04-23T16:52:25.719Z,7.75
2023-04-23T16:54:58.250Z,7.93
2023-04-23T16:57:35.183Z,6.97
2023-04-23T17:00:10.067Z,9.10
2023-04-23T17:02:46.270Z,8.73
2023-04-23T17:05:24.083Z,7.47
2023-04-23T17:07:57.819Z,8.07
2023-04-23T17:10:31.307Z,8.73
2023-04-23T17:13:04.227Z,6.55
2023-04-23T17:15:36.958Z,5.87
2023-04-23T17:18:11.253Z,7.97
2023-04-23T17:20:45.991Z,8.40
2023-04-23T17:23:18.515Z,7.35
2023-04-23T17:25:53.718Z,6.63
2023-04-23T17:28:26.250Z,6.57
2023-04-23T17:30:58.917Z,8.27
2023-04-23T17:33:31.539Z,8.13
2023-04-23T17:36:04.274Z,7.60
2023-04-23T17:38:37.423Z,7.87
2023-04-23T17:41:11.469Z,11.10
2023-04-23T17:43:46.791Z,6.95
2023-04-23T17:46:19.524Z,6.33
2023-04-23T17:48:52.343Z,7.03
2023-04-23T17:51:27.085Z,10.70
2023-04-23T17:54:01.618Z,15.23
2023-04-23T17:56:34.787Z,8.03
2023-04-23T17:59:08.085Z,8.90
2023-04-23T18:01:43.082Z,8.83
2023-04-23T18:04:17.928Z,7.53
2023-04-23T18:06:50.587Z,10.40
2023-04-23T18:09:23.309Z,8.73
2023-04-23T18:11:59.349Z,8.90
2023-04-23T18:14:32.977Z,9.07
2023-04-23T18:17:05.452Z,8.50
2023-04-23T18:19:37.822Z,7.50
2023-04-23T18:22:12.608Z,9.43
2023-04-23T18:24:46.927Z,17.45
2023-04-23T18:27:19.863Z,9.57
2023-04-23T18:29:53.807Z,11.90
2023-04-23T18:32:34.423Z,17.33
2023-04-23T18:35:10.713Z,12.23
2023-04-23T18:37:49.914Z,13.77
2023-04-23T18:40:23.218Z,9.93
2023-04-23T18:42:56.210Z,9.15
2023-04-23T18:45:31.555Z,9.70
2023-04-23T18:48:44.374Z,13.67
2023-04-23T18:51:33.441Z,11.83
2023-04-23T18:54:08.477Z,11.30
2023-04-23T18:56:43.327Z,11.87
2023-04-23T18:59:16.427Z,13.90
2023-04-23T19:01:50.378Z,12.07
2023-04-23T19:04:23.792Z,8.80
2023-04-23T19:06:57.561Z,13.03
2023-04-23T19:09:30.284Z,12.65
2023-04-23T19:12:03.825Z,17.93
2023-04-23T19:14:36.543Z,11.33
2023-04-23T19:17:09.274Z,10.90
2023-04-23T19:19:43.444Z,11.23
2023-04-23T19:22:16.388Z,9.33
2023-04-23T19:24:49.050Z,10.00
2023-04-23T19:27:21.883Z,11.90
2023-04-23T19:29:56.049Z,6.65
2023-04-23T19:32:28.641Z,9.08
2023-04-23T19:35:01.320Z,10.47
2023-04-23T19:37:33.939Z,7.33
2023-04-23T19:40:09.448Z,10.73
2023-04-23T19:42:42.566Z,7.97
2023-04-23T19:45:18.667Z,12.87
2023-04-23T19:47:51.193Z,11.43
2023-04-23T19:50:24.457Z,11.33
2023-04-23T19:52:57.129Z,7.33
2023-04-23T19:55:32.167Z,8.83
2023-04-23T19:58:06.775Z,7.33
2023-04-23T20:00:41.555Z,8.30
2023-04-23T20:03:17.597Z,10.77
2023-04-23T20:05:52.735Z,7.53
2023-04-23T20:08:29.985Z,10.03
2023-04-23T20:11:03.333Z,10.73
2023-04-23T20:13:39.260Z,11.35
2023-04-23T20:16:14.897Z,10.90
2023-04-23T20:18:47.435Z,7.93
2023-04-23T20:21:20.048Z,12.80
2023-04-23T20:23:52.988Z,12.30
2023-04-23T20:26:26.459Z,11.10
2023-04-23T20:29:06.554Z,9.58
2023-04-23T20:31:39.336Z,13.67
2023-04-23T20:34:14.955Z,10.67
2023-04-23T20:36:48.271Z,14.43
2023-04-23T20:39:24.411Z,8.97
2023-04-23T20:41:58.125Z,10.67
2023-04-23T20:44:33.748Z,10.00
2023-04-23T20:47:09.037Z,15.63
2023-04-23T20:49:42.786Z,10.43
2023-04-23T20:52:15.872Z,13.57
2023-04-23T20:54:48.492Z,12.27
2023-04-23T20:57:21.626Z,11.00
2023-04-23T20:59:54.638Z,9.40
2023-04-23T21:02:27.228Z,8.03
2023-04-23T21:05:01.183Z,10.30
2023-04-23T21:07:36.904Z,9.65
2023-04-23T21:10:10.697Z,9.00
2023-04-23T21:12:43.924Z,10.15
2023-04-23T21:15:18.003Z,10.00
2023-04-23T21:20:21.080Z,8.43
2023-04-23T21:22:53.380Z,11.53
2023-04-23T21:25:26.946Z,9.47
2023-04-23T21:27:59.920Z,12.10
2023-04-23T21:30:48.582Z,13.97
2023-04-23T21:33:22.250Z,8.53
2023-04-23T21:35:56.206Z,13.20
2023-04-23T21:41:03.594Z,9.53
2023-04-23T21:43:36.747Z,10.63
2023-04-23T21:46:09.725Z,12.13
2023-04-23T21:48:42.620Z,9.87
2023-04-23T21:51:15.731Z,10.67
2023-04-23T21:53:48.382Z,11.43
2023-04-23T21:56:21.994Z,9.70
2023-04-23T21:58:55.093Z,13.72
2023-04-23T22:01:27.993Z,10.53
2023-04-23T22:04:01.875Z,12.10
2023-04-23T22:06:35.633Z,12.73
2023-04-23T22:09:08.578Z,10.65
2023-04-23T22:11:48.873Z,11.83
2023-04-23T22:14:28.022Z,11.70
2023-04-23T22:17:02.354Z,11.60
2023-04-23T22:19:37.579Z,15.20
2023-04-23T22:22:10.517Z,12.63
2023-04-23T22:24:42.865Z,14.33
2023-04-23T22:27:16.024Z,12.17
2023-04-23T22:29:48.719Z,8.83
2023-04-23T22:32:21.582Z,11.80
2023-04-23T22:34:56.478Z,13.80
2023-04-23T22:37:30.160Z,13.40
2023-04-23T22:40:04.260Z,11.95
2023-04-23T22:42:37.811Z,12.57
2023-04-23T22:45:15.906Z,10.70
2023-04-23T22:47:49.094Z,17.03
2023-04-23T22:50:22.595Z,11.23
2023-04-23T22:52:56.643Z,17.77
2023-04-23T22:55:29.184Z,12.23
2023-04-23T22:58:03.964Z,11.53
2023-04-23T23:00:37.621Z,10.00
2023-04-23T23:03:10.189Z,12.10
2023-04-23T23:05:50.493Z,12.93
2023-04-23T23:08:23.234Z,11.47
2023-04-23T23:10:56.468Z,17.00
2023-04-23T23:13:29.516Z,11.60
2023-04-23T23:16:06.138Z,11.50
2023-04-23T23:18:39.203Z,11.83
2023-04-23T23:21:11.886Z,12.90
2023-04-23T23:23:46.858Z,14.97
2023-04-23T23:26:20.229Z,12.90
2023-04-23T23:28:52.865Z,15.78
2023-04-23T23:31:26.311Z,12.30
2023-04-23T23:33:58.639Z,11.50
2023-04-23T23:36:32.078Z,11.97
2023-04-23T23:39:04.733Z,13.68
2023-04-23T23:41:37.487Z,12.17
2023-04-23T23:44:10.335Z,12.50
2023-04-23T23:46:44.435Z,12.77
2023-04-23T23:51:48.499Z,13.00
2023-04-23T23:54:23.851Z,13.87
2023-04-23T23:56:57.217Z,11.13
2023-04-23T23:59:29.640Z,13.10
